Tuesday, September 25, 2018, 11:26 PM GMT
Back to Local

CYBG, Bagotville, Que.

Location: , , Canada Lat: 48.333
Local Time: 11:26 PM GMT (23:26 GMT) Lon: -71
Time Zone: GMT Elev: 521 ft

Show me the last for .
Show Coded

Time T Td Feel RH Dir Speed Gust Alt SLP Vis Weather Sky Remarks
2018-09-25 23:00 50 46 45 87 70° 15 - 30.10 30.12 15 FEW015 BKN038 BKN100 None
2018-09-25 22:00 48 48 42 100 80° 16 - 30.13 30.14 8 -RA FEW015 BKN038 OVC100 None
2018-09-25 21:39 48 48 42 100 70° 16 - 30.13 30.15 8 -RA FEW015 BKN038 OVC100 None
2018-09-25 21:10 50 48 45 93 60° 15 - 30.15 30.17 8 RA BKN038 OVC100 None
2018-09-25 21:00 50 46 46 87 80° 10 - 30.15 30.17 8 -RA BKN038 OVC100 None
2018-09-25 20:00 50 46 44 87 80° 10 18 30.16 30.18 15 -RA BKN040 OVC100 None
2018-09-25 19:00 50 46 46 87 80° 10 - 30.19 30.21 8 -RA OVC038 None
2018-09-25 18:00 52 45 - 76 60° 9 - 30.22 30.24 6 -RA OVC045 None
2018-09-25 17:14 55 41 - 58 70° 8 - 30.24 30.26 25 -RA BKN064 OVC150 None
2018-09-25 17:00 55 39 - 54 90° 8 - 30.25 30.27 25 BKN070 OVC150 Virga in the vinicity
2018-09-25 16:00 52 37 - 57 70° 22 - 30.27 30.29 25 FEW050 BKN150 OVC230 None
2018-09-25 15:00 50 36 44 57 70° 20 - 30.31 30.32 25 SCT150 BKN230 None
2018-09-25 14:00 48 34 41 57 70° 17 23 30.35 30.37 25 FEW180 BKN250 None
2018-09-25 13:00 46 34 39 61 80° 15 21 30.37 30.40 25 BKN250 None
2018-09-25 12:00 43 32 35 65 80° 16 - 30.40 30.42 25 OVC250 None
2018-09-25 11:00 41 32 33 70 80° 14 - 30.42 30.44 25 OVC250 None
2018-09-25 10:00 41 30 35 65 80° 10 - 30.43 30.45 25 BKN250 None
2018-09-25 09:00 39 30 32 69 80° 10 - 30.45 30.47 25 FEW250 None
2018-09-25 08:00 39 28 32 64 90° 12 - 30.47 30.49 25 SCT250 None
2018-09-25 07:00 41 30 36 65 90° 8 - 30.50 30.52 25 FEW140 None
2018-09-25 06:00 41 30 35 65 80° 9 - 30.52 30.54 25 SCT140 None
2018-09-25 05:00 43 32 38 65 80° 8 - 30.54 30.56 25 SCT130 None
2018-09-25 04:00 41 32 36 70 90° 7 - 30.54 30.56 25 FEW120 None
2018-09-25 03:00 43 32 39 65 90° 7 - 30.55 30.57 25 BKN120 None
2018-09-25 02:00 43 32 39 65 110° 7 - 30.57 30.59 25 OVC110 None
2018-09-25 01:00 43 34 41 70 110° 3 - 30.58 30.60 25 BKN120 None
2018-09-25 00:00 41 32 - 70 180° 2 - 30.59 30.61 25 FEW160 None

Support USWX by starting your Amazon purchase here.